Time;durP1;ratioP1;P1;durP2;ratioP2;P2;SDS_P1;SDS_P2;PMS_P1;PMS_P2;Temp;Humidity;BMP_temperature;BMP_pressure;BME280_temperature;BME280_humidity;BME280_pressure;Samples;Min_cycle;Max_cycle;Signal;HPM_P1;HPM_P2
2023/03/25 00:01:15;;;;;;;24.30;15.30;;;;;;;14.63;54.49;99724.09;107928;1257;72585;-69
2023/03/25 00:03:45;;;;;;;19.80;14.80;;;;;;;14.63;54.43;99722.53;108101;1255;72459;-69
2023/03/25 00:06:12;;;;;;;20.30;14.60;;;;;;;14.63;54.54;99714.69;108295;1256;61145;-70
2023/03/25 00:08:41;;;;;;;18.90;14.30;;;;;;;14.62;54.46;99718.04;107842;1256;61356;-69
2023/03/25 00:11:08;;;;;;;19.50;14.00;;;;;;;14.62;54.39;99714.59;107835;1257;75306;-69
2023/03/25 00:13:35;;;;;;;19.40;13.60;;;;;;;14.62;54.38;99708.90;107876;1257;72976;-69
2023/03/25 00:16:03;;;;;;;16.90;12.70;;;;;;;14.63;54.28;99711.34;107798;1257;72922;-69
2023/03/25 00:18:32;;;;;;;17.80;12.20;;;;;;;14.64;54.19;99713.80;108570;1257;59456;-69
2023/03/25 00:21:01;;;;;;;18.50;12.90;;;;;;;14.64;54.15;99713.59;107810;1256;61173;-69
2023/03/25 00:23:34;;;;;;;15.40;12.30;;;;;;;14.64;54.10;99713.70;107843;1257;73970;-69
2023/03/25 00:26:02;;;;;;;16.00;11.50;;;;;;;14.65;54.04;99707.85;107935;1257;72382;-70
2023/03/25 00:28:30;;;;;;;15.90;12.00;;;;;;;14.68;53.96;99698.28;108088;1257;73922;-70
2023/03/25 00:31:01;;;;;;;16.30;11.20;;;;;;;14.69;53.96;99697.59;107858;1258;61364;-70
2023/03/25 00:33:29;;;;;;;17.60;11.00;;;;;;;14.72;53.90;99690.13;107853;1255;62724;-70
2023/03/25 00:35:58;;;;;;;15.40;10.50;;;;;;;14.74;53.80;99693.56;107721;1256;75890;-70
2023/03/25 00:38:32;;;;;;;16.20;10.80;;;;;;;14.78;53.90;99696.42;107800;1254;72017;-69
2023/03/25 00:41:24;;;;;;;16.70;10.30;;;;;;;14.81;54.16;99691.89;107982;1255;73713;-69
2023/03/25 00:43:55;;;;;;;12.80;9.60;;;;;;;14.83;54.44;99692.38;108055;1254;61130;-69
2023/03/25 00:46:23;;;;;;;13.70;9.80;;;;;;;14.85;54.44;99690.89;108036;1257;61317;-69
2023/03/25 00:48:51;;;;;;;13.20;9.60;;;;;;;14.87;54.49;99694.18;107986;1257;75853;-70
2023/03/25 00:51:22;;;;;;;14.40;10.00;;;;;;;14.87;54.19;99699.81;107868;1256;73016;-70
2023/03/25 00:53:53;;;;;;;15.10;10.20;;;;;;;14.89;53.98;99699.77;107864;1262;73484;-69
2023/03/25 00:56:21;;;;;;;15.50;10.80;;;;;;;14.91;53.82;99702.52;108037;1257;60384;-69
2023/03/25 00:58:48;;;;;;;12.30;10.40;;;;;;;14.91;53.69;99696.50;108048;1254;61190;-69
2023/03/25 01:01:27;;;;;;;16.60;10.40;;;;;;;14.91;53.34;99694.71;108237;1257;75216;-69
2023/03/25 01:03:57;;;;;;;15.40;9.60;;;;;;;14.92;53.15;99695.70;107986;1254;72784;-69
2023/03/25 01:06:45;;;;;;;14.10;10.20;;;;;;;14.92;53.05;99688.93;108110;1254;73763;-69
2023/03/25 01:09:20;;;;;;;17.60;11.00;;;;;;;14.93;52.92;99688.75;108262;1257;61446;-69
2023/03/25 01:11:47;;;;;;;14.00;10.90;;;;;;;14.93;52.77;99689.35;108012;1256;61096;-70
2023/03/25 01:14:17;;;;;;;16.90;10.90;;;;;;;14.92;52.58;99688.87;108615;1257;74414;-70
2023/03/25 01:16:47;;;;;;;16.50;11.60;;;;;;;14.94;52.46;99685.98;107973;1259;72964;-71
2023/03/25 01:19:14;;;;;;;16.30;11.50;;;;;;;14.95;52.34;99681.39;107825;1261;72681;-70
2023/03/25 01:21:44;;;;;;;16.00;11.50;;;;;;;14.96;52.34;99681.77;108063;1257;61326;-71
2023/03/25 01:24:12;;;;;;;15.60;10.80;;;;;;;14.98;52.27;99680.88;108206;1254;60019;-70
2023/03/25 01:26:42;;;;;;;15.20;11.40;;;;;;;14.99;52.12;99681.77;107969;1257;75030;-70
2023/03/25 01:29:16;;;;;;;14.20;10.70;;;;;;;15.01;51.99;99684.14;108253;1256;72966;-70
2023/03/25 01:31:43;;;;;;;16.30;11.50;;;;;;;15.02;51.89;99683.05;108193;1255;72383;-69
2023/03/25 01:34:10;;;;;;;15.40;11.50;;;;;;;15.02;51.75;99682.77;108250;1257;61339;-70
2023/03/25 01:36:38;;;;;;;16.30;10.70;;;;;;;15.03;51.48;99687.48;108177;1255;61266;-70
2023/03/25 01:39:06;;;;;;;15.20;10.50;;;;;;;15.02;51.29;99688.30;108048;1257;74371;-71
2023/03/25 01:41:35;;;;;;;13.80;9.80;;;;;;;15.02;51.31;99690.20;107846;1256;72812;-71
2023/03/25 01:44:19;;;;;;;15.00;11.00;;;;;;;15.00;51.10;99688.11;108103;1257;73653;-70
2023/03/25 01:46:48;;;;;;;14.90;11.10;;;;;;;14.98;51.08;99684.10;108036;1257;61259;-70
2023/03/25 01:49:22;;;;;;;17.30;11.10;;;;;;;14.96;50.97;99687.20;108000;1257;61308;-71
2023/03/25 01:51:50;;;;;;;;;;;;;;;14.94;50.80;99687.65;108156;1257;75607;-70
2023/03/25 01:54:17;;;;;;;14.70;10.60;;;;;;;14.92;50.82;99690.93;107914;1257;72305;-70
2023/03/25 01:56:46;;;;;;;13.90;10.90;;;;;;;14.90;50.70;99690.48;108039;1257;72997;-70
2023/03/25 01:59:16;;;;;;;16.70;10.80;;;;;;;14.89;50.67;99690.52;108084;1259;61217;-70
2023/03/25 02:01:45;;;;;;;13.60;10.50;;;;;;;14.88;50.58;99683.57;108108;1255;60695;-70
2023/03/25 02:04:13;;;;;;;15.20;11.20;;;;;;;14.86;50.57;99684.33;107927;1257;74650;-70
2023/03/25 02:06:43;;;;;;;13.40;10.90;;;;;;;14.85;50.34;99679.52;108071;1258;72129;-70
2023/03/25 02:09:13;;;;;;;15.20;11.60;;;;;;;14.84;50.18;99688.22;108073;1258;73548;-71
2023/03/25 02:11:41;;;;;;;15.20;11.00;;;;;;;14.84;50.06;99687.13;107914;1257;61113;-68
2023/03/25 02:14:13;;;;;;;18.00;12.50;;;;;;;14.84;50.03;99680.96;108004;1255;61118;-70
2023/03/25 02:16:53;;;;;;;16.80;11.60;;;;;;;14.83;49.93;99680.55;107866;1257;74018;-69
2023/03/25 02:19:45;;;;;;;16.30;11.50;;;;;;;14.82;49.88;99680.90;108045;1257;73225;-70
2023/03/25 02:22:25;;;;;;;14.50;10.70;;;;;;;14.82;49.92;99676.40;107923;1257;74200;-70
2023/03/25 02:25:17;;;;;;;15.10;12.20;;;;;;;14.80;49.69;99669.93;108095;1257;61356;-70
2023/03/25 02:28:13;;;;;;;17.20;12.50;;;;;;;14.78;49.71;99671.90;107961;1256;61120;-69
2023/03/25 02:31:06;;;;;;;12.90;10.20;;;;;;;14.78;49.62;99667.63;108011;1257;75536;-69
2023/03/25 02:33:57;;;;;;;17.00;12.20;;;;;;;14.75;49.44;99667.67;108010;1257;73673;-70
2023/03/25 02:36:47;;;;;;;16.90;11.80;;;;;;;14.74;49.40;99666.46;107901;1261;72966;-70
2023/03/25 02:39:58;;;;;;;16.90;12.00;;;;;;;14.73;49.40;99665.55;107820;1257;61307;-69
2023/03/25 02:42:47;;;;;;;16.70;12.10;;;;;;;14.72;49.29;99660.82;107807;1256;61110;-69
2023/03/25 02:45:46;;;;;;;14.20;10.90;;;;;;;14.72;49.19;99658.41;107970;1257;73669;-70
2023/03/25 02:48:19;;;;;;;14.60;11.90;;;;;;;14.71;49.14;99658.21;107799;1257;72986;-70
2023/03/25 02:50:54;;;;;;;14.10;10.70;;;;;;;14.71;49.10;99660.20;108070;1260;73106;-69
2023/03/25 02:53:37;;;;;;;15.70;12.00;;;;;;;14.70;48.94;99659.25;107884;1261;61231;-69
2023/03/25 02:56:15;;;;;;;17.60;12.60;;;;;;;14.69;48.90;99655.57;107798;1259;59632;-69
2023/03/25 02:58:43;;;;;;;15.20;11.60;;;;;;;14.69;48.89;99654.75;107816;1262;74770;-69
2023/03/25 03:01:13;;;;;;;17.40;11.70;;;;;;;14.69;48.91;99656.91;103865;1259;5247659;-70
2023/03/25 03:03:42;;;;;;;15.00;11.30;;;;;;;14.69;48.85;99655.89;107983;1258;61247;-70
2023/03/25 03:06:14;;;;;;;13.90;11.30;;;;;;;14.68;48.86;99655.16;107872;1260;61345;-70
2023/03/25 03:08:47;;;;;;;16.20;11.90;;;;;;;14.68;48.96;99657.00;107739;1257;75906;-70
2023/03/25 03:11:55;;;;;;;14.70;11.90;;;;;;;14.66;48.96;99651.75;108189;1257;73730;-71
2023/03/25 03:14:22;;;;;;;15.00;11.30;;;;;;;14.65;48.93;99651.52;108163;1257;71690;-70
2023/03/25 03:17:08;;;;;;;15.90;10.80;;;;;;;14.63;49.01;99650.01;108114;1257;61243;-69
2023/03/25 03:20:00;;;;;;;14.20;11.40;;;;;;;14.61;48.91;99650.40;108146;1255;61141;-70
2023/03/25 03:22:51;;;;;;;14.80;11.80;;;;;;;14.59;48.98;99646.69;108141;1258;74635;-69
2023/03/25 03:25:25;;;;;;;16.00;11.50;;;;;;;14.58;49.17;99650.30;108188;1257;72253;-70
2023/03/25 03:28:09;;;;;;;15.10;10.60;;;;;;;14.57;49.13;99652.79;108194;1259;73460;-70
2023/03/25 03:30:45;;;;;;;14.40;10.70;;;;;;;14.55;49.12;99647.58;108130;1255;61414;-70
2023/03/25 03:33:26;;;;;;;14.70;10.80;;;;;;;14.54;49.23;99647.12;108108;1257;61749;-70
2023/03/25 03:35:56;;;;;;;13.80;10.90;;;;;;;14.53;49.41;99653.23;107996;1259;75699;-70
2023/03/25 03:38:26;;;;;;;16.50;12.10;;;;;;;14.51;49.33;99654.90;108130;1259;71310;-70
2023/03/25 03:40:55;;;;;;;16.80;12.80;;;;;;;14.49;49.44;99661.06;108040;1259;73998;-71
2023/03/25 03:43:38;;;;;;;17.50;11.90;;;;;;;14.48;49.44;99671.05;107842;1255;61508;-71
2023/03/25 03:46:07;;;;;;;16.70;13.00;;;;;;;14.46;49.46;99674.30;108145;1254;61524;-70
2023/03/25 03:48:40;;;;;;;16.20;12.70;;;;;;;14.43;49.36;99677.11;108331;1258;74179;-70
2023/03/25 03:51:23;;;;;;;14.20;11.90;;;;;;;14.41;49.37;99675.71;108044;1254;71792;-70
2023/03/25 03:54:11;;;;;;;17.30;11.80;;;;;;;14.40;49.40;99668.95;107834;1257;71755;-70
2023/03/25 03:56:45;;;;;;;14.20;11.20;;;;;;;14.39;49.67;99663.36;107888;1260;61097;-71
2023/03/25 03:59:16;;;;;;;14.10;11.30;;;;;;;14.38;49.96;99655.14;108003;1257;61227;-70
2023/03/25 04:01:58;;;;;;;15.10;11.40;;;;;;;14.36;49.94;99653.63;107866;1255;72485;-70
2023/03/25 04:04:26;;;;;;;15.20;11.80;;;;;;;14.35;50.04;99651.79;107825;1257;73396;-70
2023/03/25 04:07:03;;;;;;;13.30;10.80;;;;;;;14.33;50.06;99648.92;108078;1257;71860;-70
2023/03/25 04:10:01;;;;;;;12.70;10.60;;;;;;;14.31;50.15;99649.55;107981;1254;61279;-70
2023/03/25 04:12:31;;;;;;;13.70;11.00;;;;;;;14.30;50.22;99644.20;108057;1256;59375;-71
2023/03/25 04:15:02;;;;;;;13.80;10.90;;;;;;;14.29;50.13;99654.02;108124;1254;73561;-73
2023/03/25 04:17:31;;;;;;;16.00;11.20;;;;;;;14.26;50.08;99656.58;107765;1260;73658;-71
2023/03/25 04:19:59;;;;;;;14.30;11.50;;;;;;;14.25;49.96;99662.75;108000;1260;72993;-71
2023/03/25 04:22:27;;;;;;;13.50;11.10;;;;;;;14.25;49.95;99667.63;107729;1255;61504;-71
2023/03/25 04:24:55;;;;;;;14.60;11.50;;;;;;;14.24;49.87;99669.10;107945;1258;60299;-71
2023/03/25 04:27:22;;;;;;;14.90;10.90;;;;;;;14.23;50.20;99670.67;108092;1256;74122;-71
2023/03/25 04:29:51;;;;;;;14.30;11.40;;;;;;;14.22;50.26;99666.67;108095;1254;73672;-69
2023/03/25 04:32:18;;;;;;;16.30;11.70;;;;;;;14.21;50.36;99664.80;108316;1254;73673;-69
2023/03/25 04:34:45;;;;;;;15.20;11.20;;;;;;;14.20;50.53;99665.30;108145;1260;61129;-70
2023/03/25 04:37:12;;;;;;;14.70;11.10;;;;;;;14.20;50.58;99668.73;108149;1254;59267;-69
2023/03/25 04:39:39;;;;;;;13.70;11.50;;;;;;;14.18;50.69;99665.16;108083;1254;72524;-70
2023/03/25 04:42:12;;;;;;;13.50;11.20;;;;;;;14.16;50.73;99665.47;108244;1254;73144;-70
2023/03/25 04:44:40;;;;;;;13.40;10.80;;;;;;;14.14;50.79;99666.33;108131;1258;70679;-72
2023/03/25 04:47:08;;;;;;;12.00;10.40;;;;;;;14.11;50.99;99659.36;108124;1260;61240;-70
2023/03/25 04:49:37;;;;;;;13.50;11.10;;;;;;;14.08;51.06;99658.44;108390;1258;60630;-70
2023/03/25 04:52:04;;;;;;;15.00;10.80;;;;;;;14.06;51.04;99655.92;108166;1254;73686;-72
2023/03/25 04:54:31;;;;;;;15.00;11.00;;;;;;;14.04;51.12;99649.30;108079;1254;72989;-71
2023/03/25 04:56:58;;;;;;;13.90;11.00;;;;;;;14.02;51.29;99642.54;108069;1254;72599;-71
2023/03/25 04:59:25;;;;;;;14.60;11.10;;;;;;;13.99;51.42;99646.45;107875;1260;61314;-71
2023/03/25 05:01:53;;;;;;;13.90;11.30;;;;;;;13.98;51.69;99641.16;108015;1256;61135;-71
2023/03/25 05:04:23;;;;;;;15.20;11.00;;;;;;;13.97;51.85;99643.65;108112;1255;73904;-71
2023/03/25 05:06:57;;;;;;;15.00;11.20;;;;;;;13.98;51.86;99647.98;108144;1254;72722;-70
2023/03/25 05:09:24;;;;;;;15.50;11.90;;;;;;;13.99;51.97;99646.66;108053;1260;72857;-70
2023/03/25 05:11:51;;;;;;;14.80;11.10;;;;;;;13.99;51.99;99639.02;107931;1256;61182;-71
2023/03/25 05:14:22;;;;;;;16.80;12.00;;;;;;;14.01;51.96;99637.05;108057;1257;61076;-72
2023/03/25 05:16:49;;;;;;;16.50;12.40;;;;;;;14.03;52.21;99638.47;108340;1257;74207;-70
2023/03/25 05:19:17;;;;;;;17.60;13.20;;;;;;;14.05;52.45;99639.11;108001;1258;72946;-71
2023/03/25 05:21:45;;;;;;;17.50;12.50;;;;;;;14.08;52.58;99633.36;108064;1255;73503;-69
2023/03/25 05:24:13;;;;;;;17.40;12.40;;;;;;;14.12;52.57;99632.95;108184;1256;61425;-71
2023/03/25 05:26:40;;;;;;;19.90;13.80;;;;;;;14.16;52.50;99628.95;108128;1257;60056;-71
2023/03/25 05:29:13;;;;;;;19.50;13.80;;;;;;;14.21;52.40;99627.82;108143;1257;75775;-70
2023/03/25 05:31:44;;;;;;;;;;;;;;;14.25;52.34;99623.52;108114;1257;73661;-71
2023/03/25 05:34:17;;;;;;;17.80;12.80;;;;;;;14.29;52.17;99624.04;108157;1257;72952;-71
2023/03/25 05:36:44;;;;;;;16.80;12.70;;;;;;;14.32;52.17;99622.84;108152;1257;61338;-70
2023/03/25 05:39:11;;;;;;;21.30;14.30;;;;;;;14.35;51.94;99627.16;108084;1258;61100;-71
2023/03/25 05:41:37;;;;;;;19.30;13.50;;;;;;;14.38;51.84;99624.36;108073;1254;74452;-71
2023/03/25 05:44:07;;;;;;;17.10;13.20;;;;;;;14.39;51.80;99624.61;108159;1254;74090;-71
2023/03/25 05:46:34;;;;;;;17.30;12.90;;;;;;;14.43;51.78;99620.48;107966;1256;73676;-70
2023/03/25 05:49:01;;;;;;;18.50;13.20;;;;;;;14.47;51.68;99620.93;108137;1254;61214;-69
2023/03/25 05:51:32;;;;;;;16.70;13.40;;;;;;;14.50;51.62;99613.12;108148;1257;61100;-70
2023/03/25 05:54:00;;;;;;;17.80;13.00;;;;;;;14.52;51.58;99604.98;108138;1254;73170;-70
2023/03/25 05:56:27;;;;;;;18.30;11.90;;;;;;;14.53;51.53;99599.40;108074;1257;73597;-70
2023/03/25 05:58:56;;;;;;;16.00;11.90;;;;;;;14.54;51.47;99600.35;108069;1257;73924;-69
2023/03/25 06:01:23;;;;;;;13.90;11.30;;;;;;;14.54;51.64;99597.62;108235;1257;61122;-70
2023/03/25 06:04:08;;;;;;;17.30;11.00;;;;;;;14.56;51.61;99597.02;108158;1257;61131;-70
2023/03/25 06:06:36;;;;;;;13.50;11.00;;;;;;;14.58;51.68;99599.83;108076;1257;74827;-69
2023/03/25 06:09:03;;;;;;;15.80;12.20;;;;;;;14.60;51.65;99597.30;108109;1257;73432;-72
2023/03/25 06:11:36;;;;;;;14.30;11.10;;;;;;;14.62;51.65;99595.11;108123;1259;73507;-69
2023/03/25 06:14:04;;;;;;;16.10;11.80;;;;;;;14.64;51.43;99594.96;108079;1257;61124;-70
2023/03/25 06:16:35;;;;;;;14.90;11.60;;;;;;;14.65;51.39;99594.93;108159;1255;61317;-69
2023/03/25 06:19:02;;;;;;;15.10;12.90;;;;;;;14.66;51.34;99595.38;108136;1257;73189;-70
2023/03/25 06:21:32;;;;;;;19.00;12.80;;;;;;;14.65;51.31;99591.59;108105;1256;74131;-71
2023/03/25 06:24:04;;;;;;;18.50;12.10;;;;;;;14.63;51.32;99595.52;108080;1256;73852;-70
2023/03/25 06:26:32;;;;;;;17.20;12.40;;;;;;;14.61;51.34;99594.05;108173;1257;61283;-70
2023/03/25 06:29:01;;;;;;;17.10;12.80;;;;;;;14.59;51.37;99599.01;108144;1255;61237;-71
2023/03/25 06:31:32;;;;;;;16.60;13.00;;;;;;;14.56;51.38;99596.88;108133;1257;76293;-70
2023/03/25 06:34:00;;;;;;;18.50;13.70;;;;;;;14.54;51.49;99593.27;108162;1257;74815;-71
2023/03/25 06:36:33;;;;;;;;;;;;;;;14.52;51.51;99593.36;108021;1256;73887;-71
2023/03/25 06:39:00;;;;;;;20.50;14.20;;;;;;;14.49;51.65;99587.28;108137;1256;61139;-70
2023/03/25 06:41:34;;;;;;;21.40;16.20;;;;;;;14.46;51.84;99582.96;108130;1257;62062;-71
2023/03/25 06:44:11;;;;;;;17.90;14.10;;;;;;;14.45;51.91;99579.70;108121;1258;74035;-70
2023/03/25 06:46:59;;;;;;;17.20;13.30;;;;;;;14.42;52.09;99578.79;108124;1258;71681;-71
2023/03/25 06:49:29;;;;;;;15.50;12.80;;;;;;;14.41;52.11;99584.42;108120;1256;72876;-69
2023/03/25 06:51:57;;;;;;;16.00;12.60;;;;;;;14.39;52.29;99579.10;108091;1257;61205;-71
2023/03/25 06:54:25;;;;;;;17.30;13.40;;;;;;;14.38;52.40;99578.86;108071;1257;61240;-71
2023/03/25 06:57:05;;;;;;;15.60;12.30;;;;;;;14.39;52.44;99575.77;108088;1257;75658;-71
2023/03/25 06:59:54;;;;;;;16.40;13.20;;;;;;;14.43;52.52;99577.34;107844;1257;72917;-71
2023/03/25 07:02:38;;;;;;;17.40;13.90;;;;;;;14.48;52.55;99576.40;107927;1257;74489;-71
2023/03/25 07:05:08;;;;;;;17.70;13.30;;;;;;;14.54;52.55;99569.58;107939;1257;61275;-70
2023/03/25 07:07:51;;;;;;;16.40;13.20;;;;;;;14.61;52.71;99570.37;108137;1256;61205;-72
2023/03/25 07:10:54;;;;;;;16.40;12.40;;;;;;;14.73;52.67;99566.55;108106;1256;73710;-71
2023/03/25 07:13:30;;;;;;;16.20;12.60;;;;;;;14.85;52.61;99558.13;108129;1255;71471;-70
2023/03/25 07:16:04;;;;;;;16.70;13.20;;;;;;;14.97;52.55;99550.44;108072;1257;73330;-71
2023/03/25 07:18:40;;;;;;;16.70;13.40;;;;;;;15.12;52.38;99549.13;107893;1257;61269;-70
2023/03/25 07:21:26;;;;;;;16.50;12.50;;;;;;;15.24;52.10;99555.49;108049;1256;61266;-71
2023/03/25 07:24:02;;;;;;;15.30;12.30;;;;;;;15.37;51.71;99563.31;108011;1257;75980;-71
2023/03/25 07:26:42;;;;;;;16.60;13.00;;;;;;;15.49;51.33;99565.05;107851;1257;71608;-71
2023/03/25 07:29:12;;;;;;;17.70;13.30;;;;;;;15.62;50.98;99565.44;108019;1257;73871;-71
2023/03/25 07:31:49;;;;;;;16.50;14.00;;;;;;;15.74;50.82;99559.05;108023;1256;61107;-71
2023/03/25 07:34:31;;;;;;;19.10;14.80;;;;;;;15.87;50.70;99559.65;107864;1256;61218;-70
2023/03/25 07:37:22;;;;;;;15.60;13.00;;;;;;;16.03;50.50;99550.63;107941;1257;73757;-71
2023/03/25 07:39:53;;;;;;;20.30;14.50;;;;;;;16.16;50.17;99547.77;107930;1257;72268;-71
2023/03/25 07:42:34;;;;;;;19.70;16.00;;;;;;;16.30;50.02;99541.91;108042;1257;72779;-72
2023/03/25 07:45:23;;;;;;;18.10;15.00;;;;;;;16.46;49.69;99538.42;108055;1256;61351;-70
2023/03/25 07:48:00;;;;;;;17.20;14.40;;;;;;;16.59;49.18;99539.41;108051;1256;61093;-71
2023/03/25 07:50:44;;;;;;;15.60;12.60;;;;;;;16.70;48.86;99541.17;107836;1256;74506;-71
2023/03/25 07:53:23;;;;;;;;;;;;;;;16.82;48.59;99529.84;108056;1257;72951;-70
2023/03/25 07:56:04;;;;;;;16.90;13.50;;;;;;;16.94;48.32;99528.84;108022;1254;72100;-71
2023/03/25 07:58:58;;;;;;;18.90;13.70;;;;;;;17.06;48.21;99520.02;108092;1256;61187;-70
2023/03/25 08:01:31;;;;;;;18.80;14.70;;;;;;;17.20;47.97;99519.85;108102;1258;61270;-70
2023/03/25 08:04:03;;;;;;;15.70;13.40;;;;;;;17.32;47.65;99518.25;107999;1257;76100;-71
2023/03/25 08:06:39;;;;;;;17.40;13.00;;;;;;;17.42;47.19;99515.05;108071;1257;73783;-71
2023/03/25 08:09:20;;;;;;;16.60;13.60;;;;;;;17.49;47.17;99518.42;107904;1256;72724;-71
2023/03/25 08:12:07;;;;;;;17.10;13.40;;;;;;;17.58;46.94;99519.77;108232;1257;61125;-71
2023/03/25 08:14:39;;;;;;;18.00;13.50;;;;;;;17.66;46.85;99514.50;107928;1256;61227;-71
2023/03/25 08:17:06;;;;;;;15.30;12.90;;;;;;;17.75;46.86;99504.56;108054;1257;74689;-69
2023/03/25 08:19:35;;;;;;;15.30;12.80;;;;;;;17.85;46.74;99495.38;108046;1257;74414;-70
2023/03/25 08:22:04;;;;;;;16.20;12.80;;;;;;;17.95;46.63;99491.05;107894;1254;72180;-71
2023/03/25 08:24:32;;;;;;;18.50;14.80;;;;;;;18.03;46.50;99487.86;108120;1254;61237;-71
2023/03/25 08:27:00;;;;;;;17.10;13.40;;;;;;;18.11;46.42;99480.92;108133;1254;61224;-70
2023/03/25 08:29:41;;;;;;;15.20;12.40;;;;;;;18.20;46.24;99476.61;108067;1256;75441;-70
2023/03/25 08:32:08;;;;;;;14.40;12.90;;;;;;;18.29;46.16;99474.06;108228;1257;71864;-71
2023/03/25 08:34:38;;;;;;;14.40;12.60;;;;;;;18.38;45.89;99472.75;108081;1256;72896;-70
2023/03/25 08:37:10;;;;;;;16.50;13.20;;;;;;;18.47;45.60;99473.52;107881;1257;61259;-71
2023/03/25 08:39:40;;;;;;;14.80;12.90;;;;;;;18.56;45.51;99464.14;107893;1256;61154;-70
2023/03/25 08:42:07;;;;;;;14.70;13.00;;;;;;;18.64;45.50;99457.45;107789;1257;75874;-69
2023/03/25 08:44:35;;;;;;;15.40;13.00;;;;;;;18.73;45.47;99451.64;108553;1256;72677;-70
2023/03/25 08:47:02;;;;;;;15.30;12.30;;;;;;;18.82;45.19;99450.38;108089;1257;73592;-73
2023/03/25 08:49:31;;;;;;;15.00;13.00;;;;;;;18.90;45.12;99447.16;107968;1255;61179;-71
2023/03/25 08:52:00;;;;;;;16.10;13.50;;;;;;;18.96;44.88;99442.79;108126;1258;61148;-73
2023/03/25 08:54:29;;;;;;;16.40;12.80;;;;;;;18.98;44.75;99439.84;108124;1255;74129;-72
2023/03/25 08:56:56;;;;;;;16.90;13.80;;;;;;;19.01;44.64;99441.14;108128;1257;73504;-71
2023/03/25 08:59:27;;;;;;;12.60;10.80;;;;;;;19.03;44.39;99441.21;108110;1256;71550;-72
2023/03/25 09:01:55;;;;;;;16.10;12.60;;;;;;;19.05;44.00;99442.15;108082;1257;61121;-71
2023/03/25 09:04:24;;;;;;;16.30;13.30;;;;;;;19.07;43.80;99434.60;108151;1255;60820;-72
2023/03/25 09:06:52;;;;;;;14.00;12.20;;;;;;;19.08;43.71;99429.60;107930;1257;75778;-72
2023/03/25 09:09:40;;;;;;;15.10;12.40;;;;;;;19.14;43.84;99426.77;108116;1256;73940;-70
2023/03/25 09:12:11;;;;;;;13.40;11.20;;;;;;;19.21;43.81;99425.44;108094;1257;73916;-70
2023/03/25 09:14:39;;;;;;;13.10;11.70;;;;;;;19.28;43.47;99420.98;108068;1257;61203;-71
2023/03/25 09:17:08;;;;;;;13.40;11.50;;;;;;;19.36;43.32;99422.08;108130;1256;60070;-70
2023/03/25 09:19:38;;;;;;;14.20;11.40;;;;;;;19.45;43.15;99428.66;108088;1256;74972;-71
2023/03/25 09:22:06;;;;;;;14.00;12.30;;;;;;;19.53;42.90;99433.91;108125;1258;72848;-70
2023/03/25 09:24:34;;;;;;;15.30;12.50;;;;;;;19.60;42.64;99432.18;107883;1257;71805;-70
2023/03/25 09:27:02;;;;;;;14.80;12.30;;;;;;;19.66;42.20;99429.59;108076;1256;60295;-71
2023/03/25 09:29:30;;;;;;;13.80;12.30;;;;;;;19.72;42.04;99425.97;108109;1256;61834;-72
2023/03/25 09:31:58;;;;;;;14.70;12.70;;;;;;;19.80;41.81;99423.95;108141;1255;75357;-71
2023/03/25 09:34:28;;;;;;;13.70;11.30;;;;;;;19.91;41.71;99425.70;108151;1257;73592;-71
2023/03/25 09:36:56;;;;;;;14.40;12.10;;;;;;;19.99;41.47;99422.35;107990;1257;72474;-70
2023/03/25 09:39:22;;;;;;;13.80;11.30;;;;;;;20.02;41.15;99421.19;108168;1256;61285;-71
2023/03/25 09:42:12;;;;;;;13.40;11.10;;;;;;;20.03;41.09;99426.40;108179;1256;61164;-72
2023/03/25 09:45:06;;;;;;;13.90;11.60;;;;;;;20.04;40.95;99426.02;108188;1255;74867;-71
2023/03/25 09:47:40;;;;;;;14.70;12.00;;;;;;;20.02;41.00;99424.36;108154;1257;74023;-70
2023/03/25 09:50:11;;;;;;;13.40;11.60;;;;;;;20.00;40.82;99416.19;108104;1256;73673;-71
2023/03/25 09:52:55;;;;;;;13.50;11.70;;;;;;;19.97;40.87;99420.65;107644;1257;61351;-70
2023/03/25 09:55:25;;;;;;;13.60;11.40;;;;;;;19.91;40.79;99422.38;108054;1256;61135;-71
2023/03/25 09:58:18;;;;;;;13.20;11.80;;;;;;;19.81;41.07;99420.49;108147;1254;75019;-70
2023/03/25 10:00:46;;;;;;;13.20;11.10;;;;;;;19.70;41.10;99419.02;108069;1254;72417;-70
2023/03/25 10:03:18;;;;;;;14.90;13.30;;;;;;;19.58;40.93;99421.08;108044;1254;72928;-71
2023/03/25 10:06:01;;;;;;;13.60;12.20;;;;;;;19.44;41.15;99410.23;108119;1256;61500;-71
2023/03/25 10:08:41;;;;;;;16.60;12.60;;;;;;;19.30;41.38;99404.79;108216;1254;61577;-70
2023/03/25 10:11:48;;;;;;;15.50;13.90;;;;;;;19.20;41.68;99396.41;108107;1254;75647;-71
2023/03/25 10:14:19;;;;;;;14.70;12.90;;;;;;;19.12;41.92;99388.66;107465;1264;73043;-72
2023/03/25 10:16:59;;;;;;;13.30;11.50;;;;;;;19.00;41.99;99387.70;108017;1254;71791;-72
2023/03/25 10:19:37;;;;;;;14.50;12.80;;;;;;;18.88;42.30;99384.88;108120;1254;61256;-72
2023/03/25 10:22:11;;;;;;;14.90;12.60;;;;;;;18.85;42.67;99374.34;108109;1256;61243;-71
2023/03/25 10:24:48;;;;;;;14.30;12.50;;;;;;;18.87;42.85;99380.29;108196;1257;73870;-72
2023/03/25 10:27:22;;;;;;;21.40;14.30;;;;;;;18.91;42.81;99383.10;108158;1254;73439;-71
2023/03/25 10:29:57;;;;;;;16.60;13.70;;;;;;;18.93;42.99;99388.83;107874;1254;72998;-71
2023/03/25 10:32:33;;;;;;;14.50;12.20;;;;;;;19.01;43.00;99397.08;108043;1257;61239;-72
2023/03/25 10:35:02;;;;;;;14.80;13.00;;;;;;;19.10;42.98;99392.02;108107;1256;61431;-71
2023/03/25 10:37:34;;;;;;;14.20;12.30;;;;;;;19.18;42.83;99389.40;108134;1254;75609;-71
2023/03/25 10:40:37;;;;;;;;;;;;;;;19.26;42.74;99385.67;108161;1254;72996;-71
2023/03/25 10:43:10;;;;;;;;;;;;;;;19.32;42.71;99374.08;107406;1262;72411;-69
2023/03/25 10:45:38;;;;;;;14.00;12.40;;;;;;;19.34;42.72;99371.04;107901;1254;61246;-71
2023/03/25 10:48:16;;;;;;;15.00;12.90;;;;;;;19.36;42.35;99366.62;108089;1254;61258;-70
2023/03/25 10:50:43;;;;;;;17.20;15.10;;;;;;;19.33;41.96;99363.67;108092;1255;74790;-70
2023/03/25 10:53:23;;;;;;;18.80;15.00;;;;;;;19.25;41.84;99361.90;108134;1254;73853;-70
2023/03/25 10:55:57;;;;;;;16.00;14.30;;;;;;;19.20;41.92;99358.64;107876;1255;72941;-71
2023/03/25 10:58:25;;;;;;;17.40;15.30;;;;;;;19.12;42.06;99358.58;107934;1256;61642;-71
2023/03/25 11:00:52;;;;;;;16.80;14.70;;;;;;;19.10;42.08;99358.30;108205;1254;61219;-72
2023/03/25 11:03:39;;;;;;;15.90;14.00;;;;;;;19.15;42.06;99356.82;108041;1254;76938;-70
2023/03/25 11:06:07;;;;;;;17.30;15.40;;;;;;;19.20;42.18;99351.54;108140;1257;73935;-71
2023/03/25 11:08:34;;;;;;;16.10;14.30;;;;;;;19.27;42.10;99346.94;107859;1260;73217;-70
2023/03/25 11:11:04;;;;;;;16.20;14.20;;;;;;;19.30;41.79;99346.48;108087;1254;61122;-70
2023/03/25 11:13:31;;;;;;;15.10;13.40;;;;;;;19.35;41.89;99341.06;107883;1254;61160;-70
2023/03/25 11:16:03;;;;;;;17.10;13.80;;;;;;;19.41;41.56;99338.73;107997;1257;74009;-69
2023/03/25 11:18:37;;;;;;;15.40;13.60;;;;;;;19.43;41.36;99336.71;107917;1254;73648;-71
2023/03/25 11:21:08;;;;;;;16.30;13.80;;;;;;;19.45;41.35;99327.86;108120;1254;71475;-71
2023/03/25 11:23:37;;;;;;;16.30;14.40;;;;;;;19.49;41.17;99324.39;107971;1254;61441;-71
2023/03/25 11:26:32;;;;;;;18.30;13.70;;;;;;;19.54;41.38;99325.23;108209;1257;60269;-72
2023/03/25 11:29:01;;;;;;;17.90;14.00;;;;;;;19.60;41.33;99320.77;107945;1256;75097;-69
2023/03/25 11:31:32;;;;;;;15.30;13.40;;;;;;;19.67;41.56;99316.00;108894;1256;73413;-71
2023/03/25 11:34:21;;;;;;;13.60;11.90;;;;;;;19.76;41.47;99318.63;107902;1257;71823;-70
2023/03/25 11:36:54;;;;;;;;;;;;;;;19.81;41.18;99321.41;108121;1255;61540;-70
2023/03/25 11:39:21;;;;;;;15.90;13.70;;;;;;;19.82;41.04;99323.73;108166;1256;61141;-71
2023/03/25 11:41:49;;;;;;;17.20;15.00;;;;;;;19.82;41.24;99323.05;108129;1257;75784;-70